Decoded Metar for CYDL (DEASE LAKE in BC, CANADA) (IATA:YDL) | Meteo·Mobile Aviation Weather
aviador You're here:

CYDL Decoded Metar

DEASE LAKE in BC, CANADA
Report Time2018-09-20 02:00:00
UTC Time2018-09-20 02:14:47
Flight Rules vfr VFR
Wind280° at 04 kt
W.Decomp.*RWY 20: 2.2 kt HW 3.3 kt RCW
W.Rank280° ranks 29
Current wind is below 280° avg. (4.2)
Visibility9999 m
Phenomena:N/A
Clouds:Overcast 080 Hf
Expected CloudBase > 6,400 ft AGL from Temp-Dew spread
Ceiling8,000 ft
Temp11°C (ISA +1)
Dew Point-5°C (32% RH)
AAT6.9°C
QNH1016 hPa
Density Alt2,795 ft
Elevation2,677 ft
Report Wrong Elevation
Raw Report
METAR CYDL 200200Z AUTO 28004KT 250V340 9SM OVC080 11/M05 A2999 RMK SLP177 DENSITY ALT 2700FT=

Extra information for CYDL:More info

Metar Taf Metar & Taf Last 4 Metars F.Rules Stats Wind Profile Meteogram Temp Stats Airport Information Weather charts Add Link Nearby VenuesMetar ALERT Operation Metar Decoded Social comments